Time;durP1;ratioP1;P1;durP2;ratioP2;P2;SDS_P1;SDS_P2;PMS_P1;PMS_P2;Temp;Humidity;BMP_temperature;BMP_pressure;BME280_temperature;BME280_humidity;BME280_pressure;Samples;Min_cycle;Max_cycle;Signal;HPM_P1;HPM_P2
2022/05/30 00:00:46;;;;;;;1.13;0.40;;;18.80;54.80;;;;;;5074353;28;44644;-61
2022/05/30 00:03:13;;;;;;;1.00;0.68;;;18.80;54.80;;;;;;5069366;28;43456;-62
2022/05/30 00:05:46;;;;;;;0.43;0.40;;;18.80;54.90;;;;;;5064449;28;43423;-61
2022/05/30 00:08:15;;;;;;;0.77;0.75;;;18.80;54.90;;;;;;5069452;28;43449;-62
2022/05/30 00:10:43;;;;;;;0.68;0.60;;;18.80;54.90;;;;;;5068872;28;43808;-62
2022/05/30 00:13:12;;;;;;;0.90;0.45;;;18.80;54.90;;;;;;5070638;28;43517;-62
2022/05/30 00:15:41;;;;;;;0.60;0.60;;;18.80;54.90;;;;;;5080667;28;43372;-61
2022/05/30 00:18:09;;;;;;;0.68;0.55;;;18.80;54.90;;;;;;5069378;28;43407;-61
2022/05/30 00:20:37;;;;;;;0.43;0.40;;;18.70;54.80;;;;;;5069154;28;45102;-62
2022/05/30 00:23:04;;;;;;;0.70;0.60;;;18.70;54.90;;;;;;5080963;28;43454;-62
2022/05/30 00:25:33;;;;;;;0.35;0.35;;;18.70;54.90;;;;;;5079881;28;43521;-61
2022/05/30 00:28:01;;;;;;;1.55;0.82;;;18.70;54.90;;;;;;5069361;28;43448;-62
2022/05/30 00:30:28;;;;;;;0.52;0.52;;;18.70;54.90;;;;;;5056633;28;43789;-61
2022/05/30 00:32:55;;;;;;;0.68;0.65;;;18.70;54.90;;;;;;5070606;28;43479;-61
2022/05/30 00:35:23;;;;;;;0.90;0.55;;;18.70;54.90;;;;;;5070742;28;43374;-62
2022/05/30 00:37:50;;;;;;;0.60;0.60;;;18.70;54.90;;;;;;5068752;28;43489;-61
2022/05/30 00:40:18;;;;;;;1.50;0.73;;;18.70;55.00;;;;;;5068703;28;45304;-62
2022/05/30 00:42:45;;;;;;;1.00;0.55;;;18.70;55.00;;;;;;5052660;28;43974;-61
2022/05/30 00:45:13;;;;;;;2.17;0.70;;;18.70;55.00;;;;;;5076384;28;43498;-61
2022/05/30 00:47:41;;;;;;;0.60;0.60;;;18.70;54.90;;;;;;5067490;28;43508;-62
2022/05/30 00:50:10;;;;;;;0.82;0.80;;;18.70;55.00;;;;;;5071014;28;45232;-62
2022/05/30 00:52:41;;;;;;;1.15;0.50;;;18.70;55.00;;;;;;5080813;28;43801;-61
2022/05/30 00:55:14;;;;;;;0.68;0.38;;;18.70;55.00;;;;;;5079247;28;43535;-61
2022/05/30 00:57:43;;;;;;;0.60;0.60;;;18.70;55.00;;;;;;5068486;28;43524;-62
2022/05/30 01:00:16;;;;;;;1.35;0.45;;;18.70;55.00;;;;;;5080132;28;44038;-62
2022/05/30 01:06:30;;;;;;;0.60;0.50;;;18.60;55.00;;;;;;5061379;28;43716;-61
2022/05/30 01:08:24;;;;;;;0.47;0.40;;;18.60;55.00;;;;;;5063583;28;43531;-62
2022/05/30 01:10:51;;;;;;;0.60;0.40;;;18.60;55.10;;;;;;5067196;28;43826;-62
2022/05/30 01:13:18;;;;;;;0.32;0.32;;;18.60;55.00;;;;;;5068147;28;43912;-61
2022/05/30 01:15:46;;;;;;;0.52;0.43;;;18.60;55.10;;;;;;5057277;28;43486;-62
2022/05/30 01:18:36;;;;;;;0.85;0.60;;;18.60;55.10;;;;;;5069473;28;43494;-62
2022/05/30 01:21:22;;;;;;;0.95;0.52;;;18.60;55.10;;;;;;5067333;28;43954;-62
2022/05/30 01:24:19;;;;;;;0.88;0.47;;;18.50;55.10;;;;;;5050112;28;43516;-61
2022/05/30 01:27:12;;;;;;;1.17;0.60;;;18.60;55.10;;;;;;4987981;28;43516;-61
2022/05/30 01:29:47;;;;;;;0.73;0.50;;;18.50;55.10;;;;;;5062302;28;43522;-62
2022/05/30 01:32:23;;;;;;;0.75;0.60;;;18.50;55.10;;;;;;5063853;28;44139;-61
2022/05/30 01:34:53;;;;;;;0.68;0.60;;;18.50;55.10;;;;;;5057018;28;44004;-62
2022/05/30 01:37:27;;;;;;;0.88;0.70;;;18.50;55.10;;;;;;5065970;28;43532;-61
2022/05/30 01:39:55;;;;;;;0.40;0.40;;;18.50;55.10;;;;;;5060433;28;43585;-61
2022/05/30 01:42:22;;;;;;;1.02;0.60;;;18.50;55.10;;;;;;5062883;28;43804;-62
2022/05/30 01:44:49;;;;;;;0.50;0.50;;;18.50;55.10;;;;;;5069847;28;43387;-61
2022/05/30 01:47:17;;;;;;;1.05;0.73;;;18.50;55.10;;;;;;5070353;28;43470;-61
2022/05/30 01:49:45;;;;;;;0.70;0.50;;;18.50;55.10;;;;;;5064392;28;43471;-61
2022/05/30 01:52:13;;;;;;;0.70;0.40;;;18.50;55.10;;;;;;5063046;28;43764;-61
2022/05/30 01:54:41;;;;;;;0.40;0.40;;;18.50;55.10;;;;;;5079877;28;44062;-61
2022/05/30 01:57:31;;;;;;;0.67;0.50;;;18.50;55.10;;;;;;5070024;27;43467;-61
2022/05/30 02:00:22;;;;;;;0.82;0.50;;;18.50;55.20;;;;;;5068893;28;43620;-62
2022/05/30 02:02:51;;;;;;;0.73;0.50;;;18.50;55.20;;;;;;5059295;28;45015;-61
2022/05/30 02:05:19;;;;;;;0.52;0.50;;;18.50;55.20;;;;;;5070950;28;43711;-61
2022/05/30 02:07:47;;;;;;;1.20;0.77;;;18.40;55.10;;;;;;5073116;28;44045;-61
2022/05/30 02:10:19;;;;;;;0.50;0.50;;;18.40;55.10;;;;;;5059439;28;43448;-61
2022/05/30 02:12:49;;;;;;;0.52;0.40;;;18.40;55.10;;;;;;5069660;28;44264;-62
2022/05/30 02:15:24;;;;;;;0.75;0.55;;;18.40;55.10;;;;;;5071579;28;43480;-62
2022/05/30 02:17:56;;;;;;;1.23;0.65;;;18.40;55.20;;;;;;5061520;28;43469;-61
2022/05/30 02:20:23;;;;;;;0.43;0.43;;;18.40;55.10;;;;;;5079177;28;43558;-62
2022/05/30 02:22:51;;;;;;;0.40;0.40;;;18.40;55.20;;;;;;5062647;28;43793;-61
2022/05/30 02:25:18;;;;;;;0.50;0.40;;;18.40;55.20;;;;;;5068324;28;43464;-61
2022/05/30 02:27:46;;;;;;;0.50;0.30;;;18.40;55.10;;;;;;5056033;28;43474;-61
2022/05/30 02:30:13;;;;;;;0.50;0.50;;;18.40;55.20;;;;;;5069333;28;43506;-61
2022/05/30 02:32:42;;;;;;;0.55;0.35;;;18.40;55.20;;;;;;5061803;28;43831;-61
2022/05/30 02:37:56;;;;;;;0.50;0.50;;;18.40;55.20;;;;;;5052948;28;43454;-61
2022/05/30 02:40:43;;;;;;;0.80;0.60;;;18.40;55.20;;;;;;5030198;28;43574;-62
2022/05/30 02:43:30;;;;;;;0.50;0.50;;;18.30;55.20;;;;;;5072242;28;44162;-60
2022/05/30 02:45:58;;;;;;;0.57;0.50;;;18.30;55.10;;;;;;5063405;28;43438;-61
2022/05/30 02:48:26;;;;;;;0.50;0.50;;;18.30;55.10;;;;;;5063922;28;43419;-62
2022/05/30 02:50:53;;;;;;;0.50;0.45;;;18.30;55.10;;;;;;5068074;28;43488;-62
2022/05/30 02:53:21;;;;;;;0.63;0.30;;;18.30;55.20;;;;;;5079379;28;43788;-61
2022/05/30 02:56:21;;;;;;;0.57;0.40;;;18.30;55.20;;;;;;5039616;28;43928;-61
2022/05/30 02:58:49;;;;;;;0.57;0.50;;;18.30;55.20;;;;;;5081418;28;43502;-61
2022/05/30 03:01:18;;;;;;;0.52;0.40;;;18.30;55.20;;;;;;5060599;28;43447;-61
2022/05/30 03:03:46;;;;;;;0.45;0.40;;;18.30;55.20;;;;;;5079590;28;44985;-62
2022/05/30 03:06:13;;;;;;;0.80;0.60;;;18.30;55.20;;;;;;5069960;28;43685;-61
2022/05/30 03:08:42;;;;;;;0.50;0.50;;;18.30;55.30;;;;;;5072436;27;43394;-61
2022/05/30 03:11:10;;;;;;;0.93;0.77;;;18.30;55.20;;;;;;5069586;28;43720;-61
2022/05/30 03:13:38;;;;;;;0.40;0.38;;;18.30;55.20;;;;;;5068720;28;44188;-61
2022/05/30 03:16:06;;;;;;;0.43;0.43;;;18.30;55.20;;;;;;5063478;28;43517;-62
2022/05/30 03:18:38;;;;;;;0.68;0.40;;;18.30;55.20;;;;;;5053618;28;43511;-62
2022/05/30 03:21:05;;;;;;;0.43;0.43;;;18.30;55.20;;;;;;5058625;28;44063;-61
2022/05/30 03:23:33;;;;;;;0.98;0.68;;;18.30;55.20;;;;;;5065113;28;45279;-61
2022/05/30 03:26:12;;;;;;;1.10;0.80;;;18.20;55.20;;;;;;5055231;28;44027;-62
2022/05/30 03:28:39;;;;;;;0.70;0.47;;;18.20;55.20;;;;;;5069894;28;43466;-62
2022/05/30 03:31:07;;;;;;;0.73;0.50;;;18.20;55.20;;;;;;5055930;28;43430;-62
2022/05/30 03:33:39;;;;;;;0.90;0.57;;;18.20;55.20;;;;;;5068785;28;45332;-61
2022/05/30 03:36:26;;;;;;;0.70;0.50;;;18.20;55.30;;;;;;5054738;28;43497;-61
2022/05/30 03:39:14;;;;;;;0.65;0.50;;;18.20;55.20;;;;;;5068205;28;43444;-61
2022/05/30 03:42:20;;;;;;;0.40;0.40;;;18.20;55.20;;;;;;5004070;28;43718;-61
2022/05/30 03:44:54;;;;;;;0.70;0.68;;;18.20;55.30;;;;;;5004035;28;44683;-61
2022/05/30 03:47:22;;;;;;;0.65;0.30;;;18.20;55.30;;;;;;5036695;28;43533;-61
2022/05/30 03:49:49;;;;;;;0.40;0.40;;;18.20;55.30;;;;;;5070296;28;43530;-62
2022/05/30 03:52:17;;;;;;;0.93;0.47;;;18.20;55.30;;;;;;5081319;28;44065;-62
2022/05/30 03:54:45;;;;;;;0.65;0.30;;;18.20;55.30;;;;;;5064966;28;45004;-61
2022/05/30 03:57:12;;;;;;;0.40;0.40;;;18.20;55.20;;;;;;5058257;28;43627;-62
2022/05/30 03:59:39;;;;;;;0.55;0.40;;;18.20;55.20;;;;;;5079532;28;43577;-61
2022/05/30 04:02:07;;;;;;;0.68;0.60;;;18.20;55.30;;;;;;5054832;28;43643;-62
2022/05/30 04:04:35;;;;;;;0.38;0.30;;;18.20;55.20;;;;;;5051185;28;45007;-61
2022/05/30 04:07:03;;;;;;;1.20;0.43;;;18.20;55.20;;;;;;5059722;28;43525;-61
2022/05/30 04:09:39;;;;;;;0.30;0.30;;;18.20;55.20;;;;;;5052417;28;43484;-61
2022/05/30 04:12:39;;;;;;;0.63;0.40;;;18.20;55.20;;;;;;5069188;28;43677;-61
2022/05/30 04:15:34;;;;;;;0.38;0.35;;;18.10;55.20;;;;;;5056117;28;45352;-62
2022/05/30 04:18:01;;;;;;;1.55;0.47;;;18.10;55.30;;;;;;5059330;28;43455;-62
2022/05/30 04:20:29;;;;;;;0.30;0.30;;;18.10;55.30;;;;;;5057685;28;43462;-61
2022/05/30 04:22:56;;;;;;;0.70;0.30;;;18.10;55.30;;;;;;5080252;28;43609;-62
2022/05/30 04:25:46;;;;;;;0.40;0.40;;;18.10;55.30;;;;;;5054977;28;44897;-61
2022/05/30 04:28:14;;;;;;;0.63;0.47;;;18.10;55.30;;;;;;5069339;28;43997;-61
2022/05/30 04:30:47;;;;;;;0.25;0.25;;;18.10;55.20;;;;;;5063374;28;43478;-61
2022/05/30 04:33:14;;;;;;;0.52;0.40;;;18.10;55.20;;;;;;5061908;28;43523;-62
2022/05/30 04:35:43;;;;;;;0.60;0.55;;;18.10;55.90;;;;;;5033789;28;44226;-62
2022/05/30 04:38:11;;;;;;;0.73;0.60;;;18.10;55.20;;;;;;5067924;28;43679;-62
2022/05/30 04:41:01;;;;;;;0.30;0.30;;;18.10;55.10;;;;;;5080256;28;43456;-62
2022/05/30 04:43:49;;;;;;;1.55;0.30;;;18.10;55.20;;;;;;5073099;28;43646;-61
2022/05/30 04:46:35;;;;;;;0.40;0.30;;;18.10;55.20;;;;;;5072519;28;44727;-62
2022/05/30 04:49:03;;;;;;;2.58;0.70;;;18.10;55.20;;;;;;5071728;28;43543;-62
2022/05/30 04:51:30;;;;;;;0.45;0.40;;;18.10;55.30;;;;;;5074625;28;43499;-62
2022/05/30 04:53:58;;;;;;;0.38;0.38;;;18.10;55.30;;;;;;5071329;28;43592;-61
2022/05/30 04:56:59;;;;;;;0.50;0.40;;;18.10;55.30;;;;;;5064233;28;45100;-61
2022/05/30 04:59:28;;;;;;;1.13;0.60;;;18.10;55.30;;;;;;5067356;28;44574;-62
2022/05/30 05:02:01;;;;;;;0.65;0.40;;;18.10;55.30;;;;;;5058678;28;43443;-61
2022/05/30 05:04:30;;;;;;;1.10;0.65;;;18.10;55.20;;;;;;5070834;28;43620;-61
2022/05/30 05:06:57;;;;;;;0.35;0.35;;;18.10;55.20;;;;;;5067297;28;44840;-62
2022/05/30 05:09:34;;;;;;;0.75;0.30;;;18.10;55.20;;;;;;5057167;28;43563;-61
2022/05/30 05:12:31;;;;;;;0.85;0.50;;;18.10;55.20;;;;;;5057051;28;43601;-62
2022/05/30 05:15:17;;;;;;;0.85;0.40;;;18.00;55.20;;;;;;5068228;28;43447;-62
2022/05/30 05:17:57;;;;;;;0.50;0.50;;;18.10;55.30;;;;;;5068710;28;43968;-62
2022/05/30 05:20:24;;;;;;;1.10;0.43;;;18.10;55.30;;;;;;5066255;28;43533;-62
2022/05/30 05:22:52;;;;;;;0.65;0.40;;;18.00;55.30;;;;;;5074889;28;43501;-62
2022/05/30 05:25:40;;;;;;;1.58;0.52;;;18.00;55.30;;;;;;5071281;28;43427;-61
2022/05/30 05:28:26;;;;;;;0.80;0.40;;;18.00;55.40;;;;;;5053223;28;43812;-62
2022/05/30 05:30:53;;;;;;;0.75;0.40;;;18.00;55.40;;;;;;5057143;28;43718;-62
2022/05/30 05:33:22;;;;;;;0.93;0.40;;;18.00;55.60;;;;;;5058918;28;43436;-63
2022/05/30 05:35:49;;;;;;;0.88;0.70;;;18.00;55.50;;;;;;5070354;28;43490;-62
2022/05/30 05:38:16;;;;;;;0.73;0.50;;;18.00;55.50;;;;;;5062933;28;43791;-62
2022/05/30 05:40:52;;;;;;;0.65;0.40;;;18.00;55.50;;;;;;5053851;28;43743;-62
2022/05/30 05:43:23;;;;;;;1.10;0.47;;;18.00;55.50;;;;;;5054691;28;43418;-63
2022/05/30 05:45:51;;;;;;;0.40;0.40;;;18.00;55.60;;;;;;5059896;28;43528;-62
2022/05/30 05:48:18;;;;;;;0.57;0.40;;;18.00;55.60;;;;;;5077059;28;44862;-63
2022/05/30 05:50:46;;;;;;;1.08;0.50;;;18.00;55.60;;;;;;5054825;28;44146;-63
2022/05/30 05:53:16;;;;;;;0.60;0.40;;;18.00;55.60;;;;;;5049503;28;43430;-62
2022/05/30 05:55:45;;;;;;;0.93;0.50;;;18.00;55.60;;;;;;5065290;28;43496;-62
2022/05/30 05:58:13;;;;;;;0.45;0.30;;;18.00;55.50;;;;;;5081607;28;45298;-63
2022/05/30 06:00:42;;;;;;;1.35;0.52;;;18.00;55.50;;;;;;5070787;28;44089;-63
2022/05/30 06:03:10;;;;;;;0.40;0.40;;;18.00;55.40;;;;;;5052291;28;43500;-63
2022/05/30 06:06:05;;;;;;;0.30;0.30;;;18.00;55.40;;;;;;5071514;28;43538;-62
2022/05/30 06:08:50;;;;;;;0.68;0.55;;;18.00;55.40;;;;;;5068247;28;44062;-62
2022/05/30 06:11:35;;;;;;;0.43;0.40;;;18.00;55.40;;;;;;5069431;28;43537;-63
2022/05/30 06:14:04;;;;;;;0.50;0.40;;;18.00;55.50;;;;;;5055081;28;43503;-62
2022/05/30 06:16:37;;;;;;;0.47;0.40;;;18.00;55.50;;;;;;5062018;28;43494;-62
2022/05/30 06:19:06;;;;;;;0.55;0.38;;;18.00;55.40;;;;;;5062924;28;44077;-61
2022/05/30 06:21:34;;;;;;;0.80;0.32;;;18.00;55.40;;;;;;5069748;28;43677;-62
2022/05/30 06:24:05;;;;;;;0.63;0.35;;;18.00;55.40;;;;;;5075649;28;43470;-62
2022/05/30 06:26:59;;;;;;;0.73;0.30;;;18.00;55.40;;;;;;5031914;28;43584;-61
2022/05/30 06:29:26;;;;;;;0.47;0.40;;;18.00;55.50;;;;;;5068034;28;43801;-61
2022/05/30 06:31:53;;;;;;;4.85;2.70;;;18.00;55.50;;;;;;5055246;28;44158;-62
2022/05/30 06:34:21;;;;;;;4.28;3.20;;;18.00;55.60;;;;;;5038363;28;43547;-63
2022/05/30 06:36:49;;;;;;;3.63;1.95;;;18.00;55.50;;;;;;5051527;28;43520;-62
2022/05/30 06:39:17;;;;;;;3.30;1.88;;;18.00;55.70;;;;;;5058241;28;44058;-62
2022/05/30 06:41:57;;;;;;;1.55;1.40;;;18.00;55.80;;;;;;5062242;28;43793;-62
2022/05/30 06:44:25;;;;;;;2.13;1.67;;;18.10;55.80;;;;;;5077045;28;43421;-63
2022/05/30 06:47:12;;;;;;;2.17;1.40;;;18.20;55.80;;;;;;5067360;28;43602;-63
2022/05/30 06:50:04;;;;;;;1.42;1.33;;;18.30;55.70;;;;;;5064814;28;43873;-61
2022/05/30 06:52:34;;;;;;;2.25;1.52;;;18.50;55.60;;;;;;5068115;28;43633;-63
2022/05/30 06:55:02;;;;;;;1.58;1.48;;;18.70;55.50;;;;;;5070164;28;43501;-63
2022/05/30 07:00:16;;;;;;;2.00;1.45;;;19.00;55.00;;;;;;5071381;28;44044;-63
2022/05/30 07:03:04;;;;;;;2.08;1.27;;;19.20;54.70;;;;;;5083697;28;44063;-63
2022/05/30 07:05:50;;;;;;;1.00;1.00;;;19.30;54.40;;;;;;5057991;28;43439;-63
2022/05/30 07:08:43;;;;;;;1.35;1.25;;;19.40;54.20;;;;;;5068284;28;43591;-62
2022/05/30 07:11:29;;;;;;;1.40;1.30;;;19.50;54.00;;;;;;5069685;28;44087;-63
2022/05/30 07:13:57;;;;;;;3.05;1.30;;;19.50;53.90;;;;;;5052617;28;44254;-62
2022/05/30 07:16:25;;;;;;;1.92;1.10;;;19.60;53.90;;;;;;5072122;28;43442;-62
2022/05/30 07:18:53;;;;;;;1.05;0.90;;;19.70;54.00;;;;;;5076291;28;43428;-63
2022/05/30 07:21:23;;;;;;;1.75;1.05;;;19.70;53.80;;;;;;5059928;28;44033;-61
2022/05/30 07:24:12;;;;;;;1.42;1.13;;;19.80;53.70;;;;;;5083424;28;43961;-63
2022/05/30 07:27:06;;;;;;;1.10;0.98;;;19.90;53.70;;;;;;5045047;28;43544;-63
2022/05/30 07:29:52;;;;;;;2.05;0.95;;;20.00;53.50;;;;;;5070024;28;43480;-62
2022/05/30 07:32:38;;;;;;;1.27;1.10;;;20.20;53.50;;;;;;5080675;28;45008;-62
2022/05/30 07:35:24;;;;;;;1.30;1.00;;;20.20;53.30;;;;;;5083255;28;43491;-63
2022/05/30 07:38:27;;;;;;;0.80;0.80;;;20.30;53.20;;;;;;5049884;28;43542;-62
2022/05/30 07:41:13;;;;;;;1.67;1.00;;;20.40;53.10;;;;;;5076690;28;43601;-63
2022/05/30 07:44:05;;;;;;;1.02;0.98;;;20.40;53.00;;;;;;5081808;28;43794;-63
2022/05/30 07:46:45;;;;;;;1.13;1.02;;;20.50;53.60;;;;;;5050713;28;43709;-63
2022/05/30 07:49:41;;;;;;;1.10;1.00;;;20.60;52.90;;;;;;5057310;28;43413;-61
2022/05/30 07:52:34;;;;;;;1.38;0.70;;;20.60;53.00;;;;;;5072068;28;43581;-64
2022/05/30 07:55:14;;;;;;;1.13;0.80;;;20.70;52.90;;;;;;5068211;28;43961;-64
2022/05/30 07:57:51;;;;;;;1.63;0.70;;;20.70;52.80;;;;;;5066433;28;43873;-61
2022/05/30 08:00:22;;;;;;;2.05;1.13;;;20.80;52.90;;;;;;5058250;28;43502;-62
2022/05/30 08:02:51;;;;;;;0.85;0.70;;;20.80;53.30;;;;;;5069580;28;44008;-60
2022/05/30 08:05:23;;;;;;;1.02;0.93;;;20.90;53.40;;;;;;5053593;28;43876;-62
2022/05/30 08:08:10;;;;;;;1.70;0.82;;;20.90;53.30;;;;;;5063445;28;43504;-62
2022/05/30 08:10:44;;;;;;;1.30;1.13;;;21.00;53.00;;;;;;5060578;28;43469;-61
2022/05/30 08:13:13;;;;;;;3.92;1.10;;;21.10;53.20;;;;;;5049687;28;43617;-62
2022/05/30 08:15:43;;;;;;;1.27;0.85;;;21.10;53.00;;;;;;5051301;28;44039;-62
2022/05/30 08:18:23;;;;;;;2.28;0.85;;;21.10;53.00;;;;;;5062420;28;43525;-61
2022/05/30 08:20:56;;;;;;;0.93;0.70;;;21.20;53.00;;;;;;5065410;28;43406;-61
2022/05/30 08:23:25;;;;;;;4.75;1.08;;;21.20;53.00;;;;;;5064057;28;43632;-61
2022/05/30 08:25:55;;;;;;;2.15;0.90;;;21.30;52.90;;;;;;5058148;28;45112;-62
2022/05/30 08:28:26;;;;;;;0.82;0.80;;;21.30;52.80;;;;;;5081117;28;43549;-61
2022/05/30 08:30:54;;;;;;;4.82;0.80;;;21.40;52.70;;;;;;5063433;28;43414;-61
2022/05/30 08:33:53;;;;;;;4.93;1.05;;;21.50;52.50;;;;;;5067447;28;43580;-61
2022/05/30 08:36:34;;;;;;;2.03;0.90;;;21.50;52.50;;;;;;5068174;28;43790;-62
2022/05/30 08:41:47;;;;;;;1.52;0.70;;;21.60;52.30;;;;;;5063081;28;43466;-61
2022/05/30 08:44:31;;;;;;;2.17;0.77;;;21.70;52.30;;;;;;5045053;28;43652;-63
2022/05/30 08:47:52;;;;;;;1.00;0.65;;;21.70;51.90;;;;;;5070452;28;43898;-63
2022/05/30 08:50:35;;;;;;;1.95;0.80;;;21.90;52.40;;;;;;5055715;28;43500;-62
2022/05/30 08:53:22;;;;;;;1.73;0.50;;;21.90;51.80;;;;;;5049651;28;43444;-63
2022/05/30 08:55:58;;;;;;;1.25;0.40;;;22.00;51.60;;;;;;5060716;28;43426;-60
2022/05/30 08:58:53;;;;;;;0.63;0.60;;;22.00;52.10;;;;;;5079791;28;45293;-63
2022/05/30 09:01:26;;;;;;;1.40;0.75;;;22.00;51.60;;;;;;5067315;28;43998;-62
2022/05/30 09:04:31;;;;;;;1.52;0.63;;;22.10;51.50;;;;;;5067576;28;43639;-61
2022/05/30 09:07:13;;;;;;;1.75;0.80;;;22.20;51.40;;;;;;5063804;28;43557;-61
2022/05/30 09:09:53;;;;;;;1.52;0.75;;;22.30;51.30;;;;;;5080195;28;43799;-62
2022/05/30 09:12:56;;;;;;;0.57;0.50;;;22.30;51.20;;;;;;5064232;28;43716;-62
2022/05/30 09:16:00;;;;;;;0.73;0.57;;;22.40;51.30;;;;;;5082742;27;43505;-62
2022/05/30 09:18:45;;;;;;;1.55;0.73;;;22.50;51.00;;;;;;5063832;28;43519;-61
2022/05/30 09:21:14;;;;;;;0.43;0.38;;;22.50;51.00;;;;;;5058359;28;44033;-62
2022/05/30 09:23:46;;;;;;;0.90;0.60;;;22.50;50.80;;;;;;5063334;28;43485;-62
2022/05/30 09:26:17;;;;;;;0.50;0.50;;;22.60;50.80;;;;;;5050351;28;43554;-62
2022/05/30 09:29:30;;;;;;;0.45;0.45;;;22.70;50.90;;;;;;5063276;28;43498;-62
2022/05/30 09:32:55;;;;;;;1.17;0.70;;;22.70;50.80;;;;;;5024117;28;43808;-62
2022/05/30 09:35:42;;;;;;;0.98;0.50;;;22.80;50.60;;;;;;5013589;28;43972;-62
2022/05/30 09:39:02;;;;;;;2.30;0.70;;;22.80;50.50;;;;;;5083818;28;43845;-62
2022/05/30 09:41:40;;;;;;;1.23;0.50;;;22.80;50.40;;;;;;5061092;28;43504;-62
2022/05/30 09:44:19;;;;;;;1.02;0.73;;;22.80;50.50;;;;;;5065298;28;44667;-62
2022/05/30 09:47:07;;;;;;;2.53;0.80;;;22.70;50.50;;;;;;5070729;28;43416;-62
2022/05/30 09:49:55;;;;;;;2.35;0.60;;;22.70;50.60;;;;;;5070578;28;43487;-62
2022/05/30 09:52:39;;;;;;;1.63;0.63;;;22.70;50.90;;;;;;5060011;28;43427;-62
2022/05/30 09:55:33;;;;;;;2.20;0.68;;;22.70;50.90;;;;;;5050112;28;44763;-62
2022/05/30 09:58:08;;;;;;;1.33;0.63;;;22.70;51.20;;;;;;5062972;28;44165;-62
2022/05/30 10:00:55;;;;;;;1.73;1.05;;;22.70;51.40;;;;;;5062847;28;43391;-61
2022/05/30 10:03:28;;;;;;;1.67;0.80;;;22.70;51.20;;;;;;5060039;28;43521;-62
2022/05/30 10:06:25;;;;;;;2.57;0.80;;;22.70;50.90;;;;;;5074281;28;44023;-62
2022/05/30 10:09:20;;;;;;;3.20;0.90;;;22.70;50.90;;;;;;5076898;28;43543;-62
2022/05/30 10:11:57;;;;;;;1.95;0.98;;;22.80;51.00;;;;;;5072316;28;43496;-61
2022/05/30 10:14:34;;;;;;;1.25;0.60;;;22.80;50.90;;;;;;5062441;28;43596;-62
2022/05/30 10:17:28;;;;;;;2.17;0.80;;;22.90;50.90;;;;;;5076852;28;44022;-62
2022/05/30 10:20:01;;;;;;;2.53;0.70;;;22.90;50.90;;;;;;5075160;27;43488;-62
2022/05/30 10:30:15;;;;;;;2.55;0.80;;;23.00;51.00;;;;;;5060965;28;44317;-62
2022/05/30 10:33:20;;;;;;;2.22;0.55;;;23.00;51.00;;;;;;5078328;28;43461;-62
2022/05/30 10:35:54;;;;;;;1.65;0.73;;;23.00;51.00;;;;;;5050500;28;43454;-62
2022/05/30 10:38:40;;;;;;;0.57;0.57;;;23.00;50.90;;;;;;5062686;28;43570;-62
2022/05/30 10:41:24;;;;;;;1.58;0.80;;;23.00;50.90;;;;;;5078136;28;43886;-62
2022/05/30 10:43:58;;;;;;;2.25;0.63;;;23.00;51.00;;;;;;5060432;28;43520;-62
2022/05/30 10:46:35;;;;;;;1.33;0.70;;;23.00;51.00;;;;;;5079323;28;43470;-62
2022/05/30 10:49:11;;;;;;;1.00;0.60;;;22.90;50.90;;;;;;5068295;28;43558;-62
2022/05/30 10:52:15;;;;;;;1.65;0.68;;;22.90;51.00;;;;;;5054125;28;43792;-62
2022/05/30 10:54:58;;;;;;;1.58;0.75;;;22.80;51.10;;;;;;5065802;28;43519;-62
2022/05/30 10:57:54;;;;;;;0.55;0.30;;;22.80;51.10;;;;;;5069479;28;43432;-62
2022/05/30 11:00:27;;;;;;;0.90;0.70;;;22.80;51.20;;;;;;5055107;28;43576;-62
2022/05/30 11:03:17;;;;;;;0.60;0.60;;;22.70;51.30;;;;;;5055967;28;44106;-62
2022/05/30 11:05:52;;;;;;;2.97;0.82;;;22.70;51.40;;;;;;5070504;28;43471;-62
2022/05/30 11:09:06;;;;;;;1.25;0.73;;;22.60;51.70;;;;;;5080050;28;44058;-62
2022/05/30 11:11:43;;;;;;;0.98;0.40;;;22.60;51.60;;;;;;5064636;28;43632;-62
2022/05/30 11:14:18;;;;;;;0.77;0.70;;;22.60;51.60;;;;;;5065668;28;43781;-62
2022/05/30 11:17:28;;;;;;;0.90;0.50;;;22.50;51.70;;;;;;5083578;27;43915;-62
2022/05/30 11:20:19;;;;;;;0.50;0.50;;;22.50;51.80;;;;;;5072543;28;43399;-62
2022/05/30 11:22:54;;;;;;;0.90;0.80;;;22.40;51.90;;;;;;5069687;28;43497;-61
2022/05/30 11:25:44;;;;;;;0.88;0.52;;;22.40;51.90;;;;;;5061780;28;45465;-62
2022/05/30 11:28:38;;;;;;;0.40;0.40;;;22.40;52.00;;;;;;5080807;28;43605;-61
2022/05/30 11:31:11;;;;;;;1.52;0.80;;;22.40;52.00;;;;;;5077912;28;43601;-62
2022/05/30 11:33:48;;;;;;;1.10;0.70;;;22.40;52.10;;;;;;5070984;28;43591;-61
2022/05/30 11:36:37;;;;;;;0.80;0.55;;;22.40;52.20;;;;;;5070328;28;44780;-62
2022/05/30 11:39:28;;;;;;;0.90;0.60;;;22.30;52.10;;;;;;5069915;28;43731;-62
2022/05/30 11:41:59;;;;;;;1.00;0.60;;;22.20;52.10;;;;;;5075068;28;43454;-61
2022/05/30 11:44:42;;;;;;;0.50;0.50;;;22.20;52.20;;;;;;5072630;28;43439;-62
2022/05/30 11:47:43;;;;;;;1.55;0.75;;;22.10;52.30;;;;;;5071900;28;45127;-62
2022/05/30 11:50:33;;;;;;;0.80;0.60;;;22.10;52.30;;;;;;5084503;27;43504;-61
2022/05/30 11:53:31;;;;;;;0.45;0.45;;;22.10;52.30;;;;;;5080209;28;43451;-61
2022/05/30 11:56:06;;;;;;;1.15;0.68;;;22.00;52.30;;;;;;5069678;28;43608;-61
2022/05/30 11:58:51;;;;;;;0.70;0.60;;;22.00;52.40;;;;;;5077036;28;44017;-62
2022/05/30 12:01:22;;;;;;;1.00;0.60;;;22.00;52.40;;;;;;5071974;28;43695;-62
2022/05/30 12:04:17;;;;;;;1.42;0.73;;;22.00;52.40;;;;;;5079700;28;43515;-61
2022/05/30 12:06:59;;;;;;;1.10;0.50;;;22.00;52.40;;;;;;5080242;28;43546;-62
2022/05/30 12:09:56;;;;;;;1.55;0.50;;;21.90;52.50;;;;;;5082730;28;43981;-62
2022/05/30 12:12:42;;;;;;;0.57;0.50;;;21.90;52.50;;;;;;5069322;28;43493;-62
2022/05/30 12:15:41;;;;;;;1.10;0.60;;;21.80;52.60;;;;;;5054611;28;43483;-62
2022/05/30 12:24:15;;;;;;;1.10;0.52;;;21.80;52.80;;;;;;5069375;28;43963;-62
2022/05/30 12:26:59;;;;;;;1.35;0.70;;;21.70;52.90;;;;;;5070327;28;43434;-62
2022/05/30 12:29:39;;;;;;;0.40;0.40;;;21.70;52.90;;;;;;5052206;28;43498;-61
2022/05/30 12:32:10;;;;;;;1.92;0.60;;;21.70;52.90;;;;;;5069162;28;44029;-62
2022/05/30 12:35:00;;;;;;;0.50;0.47;;;21.60;52.90;;;;;;5069620;28;43438;-61
2022/05/30 12:37:47;;;;;;;0.60;0.60;;;21.60;52.90;;;;;;5069154;28;43506;-62
2022/05/30 12:40:27;;;;;;;1.15;0.80;;;21.60;53.00;;;;;;5069075;28;43442;-62
2022/05/30 12:43:29;;;;;;;0.47;0.47;;;21.50;53.00;;;;;;5068875;28;44722;-62
2022/05/30 12:45:56;;;;;;;0.80;0.50;;;21.50;53.00;;;;;;5050652;28;43471;-62
2022/05/30 12:48:53;;;;;;;0.95;0.50;;;21.50;53.00;;;;;;5066365;28;43381;-62
2022/05/30 12:51:26;;;;;;;0.70;0.50;;;21.50;53.00;;;;;;5068122;28;43452;-62
2022/05/30 12:54:00;;;;;;;0.52;0.40;;;21.40;53.00;;;;;;5068573;28;44077;-62
2022/05/30 12:56:37;;;;;;;0.70;0.35;;;21.40;53.10;;;;;;5069709;28;43465;-62
2022/05/30 12:59:08;;;;;;;0.57;0.50;;;21.40;53.20;;;;;;5075254;28;43427;-61
2022/05/30 13:01:43;;;;;;;0.40;0.40;;;21.40;53.20;;;;;;5068240;28;43546;-62
2022/05/30 13:04:19;;;;;;;0.73;0.40;;;21.40;53.20;;;;;;5069985;28;43909;-62
2022/05/30 13:06:59;;;;;;;1.00;0.60;;;21.40;53.20;;;;;;5059603;28;43486;-62
2022/05/30 13:09:37;;;;;;;0.60;0.50;;;21.30;53.20;;;;;;5073732;28;43429;-62
2022/05/30 13:12:10;;;;;;;0.30;0.30;;;21.30;53.20;;;;;;5077986;28;43428;-62
2022/05/30 13:14:44;;;;;;;1.08;0.47;;;21.30;53.30;;;;;;5078762;28;44037;-62
2022/05/30 13:17:23;;;;;;;0.65;0.50;;;21.30;53.30;;;;;;5076166;28;43395;-61
2022/05/30 13:20:02;;;;;;;0.60;0.47;;;21.30;53.30;;;;;;5069691;28;43512;-62
2022/05/30 13:22:36;;;;;;;0.95;0.50;;;21.30;53.40;;;;;;5077122;28;44090;-61
2022/05/30 13:25:06;;;;;;;1.25;0.60;;;21.30;53.50;;;;;;5070626;28;44982;-61
2022/05/30 13:27:34;;;;;;;0.38;0.32;;;21.30;53.50;;;;;;5076310;28;43925;-62
2022/05/30 13:30:06;;;;;;;0.93;0.52;;;21.30;53.50;;;;;;5074312;28;43448;-61
2022/05/30 13:32:34;;;;;;;0.52;0.40;;;21.30;53.50;;;;;;5068016;28;43501;-61
2022/05/30 13:35:08;;;;;;;1.23;0.60;;;21.30;53.50;;;;;;5053902;28;46091;-61
2022/05/30 13:37:41;;;;;;;1.23;0.50;;;21.30;53.50;;;;;;5072823;28;43718;-62
2022/05/30 13:40:13;;;;;;;0.77;0.38;;;21.30;53.40;;;;;;5069021;28;43475;-61
2022/05/30 13:42:59;;;;;;;1.88;0.60;;;21.30;53.40;;;;;;5071987;28;43391;-62
2022/05/30 13:45:47;;;;;;;0.73;0.60;;;21.30;53.40;;;;;;5078289;28;44019;-62
2022/05/30 13:48:18;;;;;;;0.82;0.43;;;21.30;53.30;;;;;;5052448;28;43526;-61
2022/05/30 13:51:11;;;;;;;0.50;0.50;;;21.30;53.40;;;;;;5067084;28;43499;-61
2022/05/30 13:53:38;;;;;;;0.30;0.30;;;21.30;53.50;;;;;;5077455;28;43609;-61
2022/05/30 13:56:18;;;;;;;0.50;0.30;;;21.30;53.60;;;;;;5067535;28;43791;-61
2022/05/30 13:58:57;;;;;;;1.03;0.50;;;21.30;53.70;;;;;;5067773;28;43930;-61
2022/05/30 14:01:27;;;;;;;1.00;0.60;;;21.30;53.70;;;;;;5070415;28;43423;-61
2022/05/30 14:04:02;;;;;;;0.52;0.52;;;21.20;53.80;;;;;;5074032;28;43519;-61
2022/05/30 14:06:39;;;;;;;0.50;0.40;;;21.20;53.90;;;;;;5076038;28;44075;-61